Time;durP1;ratioP1;P1;durP2;ratioP2;P2;SDS_P1;SDS_P2;PMS_P1;PMS_P2;Temp;Humidity;BMP_temperature;BMP_pressure;BME280_temperature;BME280_humidity;BME280_pressure;Samples;Min_cycle;Max_cycle;Signal;HPM_P1;HPM_P2
2020/12/08 00:01:38;;;;;;;44.47;27.75;;;;;;;;;;5072587;28;20035;-52
2020/12/08 00:04:04;;;;;;;49.38;28.42;;;;;;;;;;5072649;28;20035;-52
2020/12/08 00:06:30;;;;;;;68.97;30.85;;;;;;;;;;5071649;28;20052;-52
2020/12/08 00:08:57;;;;;;;73.82;33.65;;;;;;;;;;5072474;28;20668;-52
2020/12/08 00:11:23;;;;;;;54.42;30.25;;;;;;;;;;5072705;28;20032;-53
2020/12/08 00:13:49;;;;;;;56.75;32.55;;;;;;;;;;5072747;28;20087;-52
2020/12/08 00:16:15;;;;;;;75.63;38.00;;;;;;;;;;5072804;28;20084;-52
2020/12/08 00:18:42;;;;;;;70.90;30.33;;;;;;;;;;5072569;28;20066;-52
2020/12/08 00:21:08;;;;;;;58.90;31.23;;;;;;;;;;5072270;28;20063;-52
2020/12/08 00:23:34;;;;;;;60.10;31.98;;;;;;;;;;5072314;28;20028;-50
2020/12/08 00:26:00;;;;;;;67.00;27.48;;;;;;;;;;5072177;28;20089;-52
2020/12/08 00:28:27;;;;;;;82.47;34.38;;;;;;;;;;5072149;28;20044;-52
2020/12/08 00:30:53;;;;;;;62.38;32.38;;;;;;;;;;5072134;28;20583;-53
2020/12/08 00:33:20;;;;;;;60.67;36.20;;;;;;;;;;5072021;28;20029;-52
2020/12/08 00:35:46;;;;;;;62.33;33.80;;;;;;;;;;5072203;28;20087;-51
2020/12/08 00:38:12;;;;;;;78.78;34.30;;;;;;;;;;5071936;28;20423;-52
2020/12/08 00:40:38;;;;;;;73.18;35.35;;;;;;;;;;5072126;28;20020;-52
2020/12/08 00:43:05;;;;;;;78.30;36.15;;;;;;;;;;5071973;28;20473;-52
2020/12/08 00:45:31;;;;;;;63.00;35.78;;;;;;;;;;5071946;28;20428;-53
2020/12/08 00:47:57;;;;;;;84.00;35.65;;;;;;;;;;5071890;28;20028;-52
2020/12/08 00:50:23;;;;;;;69.13;37.95;;;;;;;;;;5071790;28;20055;-52
2020/12/08 00:52:50;;;;;;;76.93;38.83;;;;;;;;;;5071759;28;20398;-51
2020/12/08 00:55:16;;;;;;;75.10;37.05;;;;;;;;;;5071891;28;20415;-52
2020/12/08 00:57:42;;;;;;;74.55;37.67;;;;;;;;;;5071924;28;20024;-52
2020/12/08 01:00:08;;;;;;;80.25;39.30;;;;;;;;;;5071805;28;20027;-51
2020/12/08 01:02:35;;;;;;;72.95;36.13;;;;;;;;;;5072061;28;20107;-51
2020/12/08 01:05:01;;;;;;;70.05;36.45;;;;;;;;;;5071486;28;20563;-52
2020/12/08 01:07:27;;;;;;;59.58;36.17;;;;;;;;;;5071828;28;20024;-52
2020/12/08 01:09:54;;;;;;;70.38;38.33;;;;;;;;;;5071593;28;20081;-52
2020/12/08 01:12:20;;;;;;;60.47;34.50;;;;;;;;;;5071058;28;20429;-53
2020/12/08 01:14:46;;;;;;;64.35;34.90;;;;;;;;;;5071653;28;20489;-52
2020/12/08 01:17:12;;;;;;;66.00;34.72;;;;;;;;;;5071732;28;20052;-51
2020/12/08 01:19:39;;;;;;;71.85;34.63;;;;;;;;;;5071698;28;20114;-52
2020/12/08 01:22:05;;;;;;;68.22;35.33;;;;;;;;;;5071779;28;20073;-52
2020/12/08 01:24:31;;;;;;;76.05;33.45;;;;;;;;;;5071916;28;20070;-52
2020/12/08 01:26:58;;;;;;;76.10;36.38;;;;;;;;;;5071607;28;20808;-52
2020/12/08 01:29:24;;;;;;;73.43;37.45;;;;;;;;;;5071762;28;20040;-51
2020/12/08 01:31:51;;;;;;;66.03;33.78;;;;;;;;;;5071564;28;20016;-50
2020/12/08 01:34:17;;;;;;;63.10;35.88;;;;;;;;;;5071642;28;20103;-51
2020/12/08 01:36:43;;;;;;;70.97;39.00;;;;;;;;;;5071315;28;20078;-52
2020/12/08 01:39:09;;;;;;;80.70;40.58;;;;;;;;;;5071455;28;20377;-51
2020/12/08 01:41:36;;;;;;;81.97;40.83;;;;;;;;;;5071458;28;20021;-52
2020/12/08 01:44:02;;;;;;;72.75;37.70;;;;;;;;;;5071435;28;20025;-52
2020/12/08 01:46:28;;;;;;;92.38;40.78;;;;;;;;;;5071372;28;20032;-52
2020/12/08 01:48:55;;;;;;;79.18;38.70;;;;;;;;;;5071407;28;20028;-52
2020/12/08 01:51:22;;;;;;;66.28;38.80;;;;;;;;;;5071350;28;20037;-52
2020/12/08 01:53:49;;;;;;;74.38;41.38;;;;;;;;;;5071188;28;20027;-52
2020/12/08 01:56:16;;;;;;;77.28;37.47;;;;;;;;;;5071470;28;20127;-52
2020/12/08 01:58:42;;;;;;;73.70;37.67;;;;;;;;;;5071082;28;20028;-52
2020/12/08 02:01:11;;;;;;;88.97;35.53;;;;;;;;;;5071297;28;20032;-52
2020/12/08 02:03:38;;;;;;;72.60;35.00;;;;;;;;;;5071220;28;20055;-52
2020/12/08 02:06:05;;;;;;;71.30;39.72;;;;;;;;;;5073036;28;20024;-51
2020/12/08 02:08:32;;;;;;;59.75;34.33;;;;;;;;;;5073062;28;20478;-51
2020/12/08 02:10:59;;;;;;;66.63;35.47;;;;;;;;;;5073520;28;20378;-51
2020/12/08 02:13:25;;;;;;;82.07;36.22;;;;;;;;;;5072987;28;20017;-52
2020/12/08 02:15:52;;;;;;;64.38;34.78;;;;;;;;;;5072992;28;20360;-51
2020/12/08 02:18:19;;;;;;;62.05;38.75;;;;;;;;;;5072981;28;20074;-51
2020/12/08 02:20:45;;;;;;;69.50;36.67;;;;;;;;;;5072628;28;20056;-52
2020/12/08 02:23:12;;;;;;;63.90;40.28;;;;;;;;;;5072548;28;20029;-54
2020/12/08 02:25:41;;;;;;;72.50;39.47;;;;;;;;;;5075985;28;20078;-52
2020/12/08 02:28:08;;;;;;;71.88;34.88;;;;;;;;;;5076038;28;20067;-52
2020/12/08 02:30:35;;;;;;;59.85;34.50;;;;;;;;;;5076244;28;20021;-52
2020/12/08 02:33:01;;;;;;;66.55;36.72;;;;;;;;;;5076299;28;20021;-52
2020/12/08 02:35:28;;;;;;;56.40;35.95;;;;;;;;;;5076266;28;20436;-52
2020/12/08 02:37:54;;;;;;;70.05;38.25;;;;;;;;;;5076261;28;20411;-53
2020/12/08 02:40:20;;;;;;;49.15;32.22;;;;;;;;;;5075878;28;20024;-51
2020/12/08 02:42:46;;;;;;;72.25;41.05;;;;;;;;;;5076135;28;20027;-52
2020/12/08 02:45:13;;;;;;;68.05;37.40;;;;;;;;;;5075971;28;20094;-52
2020/12/08 02:47:39;;;;;;;66.10;34.20;;;;;;;;;;5075777;28;20049;-53
2020/12/08 02:50:05;;;;;;;71.10;38.17;;;;;;;;;;5075987;28;20103;-51
2020/12/08 02:52:35;;;;;;;63.28;36.50;;;;;;;;;;5075998;28;20035;-52
2020/12/08 02:55:01;;;;;;;72.32;37.42;;;;;;;;;;5075917;28;20066;-52
2020/12/08 02:57:27;;;;;;;67.55;37.03;;;;;;;;;;5075905;28;20025;-52
2020/12/08 02:59:53;;;;;;;74.40;38.53;;;;;;;;;;5076334;28;20377;-51
2020/12/08 03:02:20;;;;;;;70.05;36.88;;;;;;;;;;5076080;28;20028;-52
2020/12/08 03:04:46;;;;;;;80.13;42.30;;;;;;;;;;5075476;28;20104;-52
2020/12/08 03:07:12;;;;;;;86.72;45.33;;;;;;;;;;5075741;28;20543;-52
2020/12/08 03:09:38;;;;;;;85.20;41.60;;;;;;;;;;5076100;28;20422;-52
2020/12/08 03:12:09;;;;;;;79.53;39.70;;;;;;;;;;5075607;28;20024;-52
2020/12/08 03:14:35;;;;;;;74.63;39.97;;;;;;;;;;5075589;28;20032;-52
2020/12/08 03:17:02;;;;;;;102.57;43.47;;;;;;;;;;5075574;28;20496;-52
2020/12/08 03:19:28;;;;;;;76.38;44.17;;;;;;;;;;5075328;28;20045;-49
2020/12/08 03:21:54;;;;;;;72.63;39.88;;;;;;;;;;5075410;28;20066;-52
2020/12/08 03:24:20;;;;;;;84.35;41.15;;;;;;;;;;5075058;28;20016;-49
2020/12/08 03:26:47;;;;;;;78.90;42.08;;;;;;;;;;5075325;28;20017;-49
2020/12/08 03:29:13;;;;;;;89.82;43.47;;;;;;;;;;5075249;28;20021;-50
2020/12/08 03:31:39;;;;;;;88.90;46.50;;;;;;;;;;5075116;28;20033;-49
2020/12/08 03:34:06;;;;;;;94.88;48.38;;;;;;;;;;5074541;28;20020;-50
2020/12/08 03:36:32;;;;;;;81.15;44.97;;;;;;;;;;5074885;28;20029;-50
2020/12/08 03:39:00;;;;;;;90.60;45.63;;;;;;;;;;5075072;28;20025;-50
2020/12/08 03:41:26;;;;;;;84.97;47.45;;;;;;;;;;5074704;28;20025;-49
2020/12/08 03:43:53;;;;;;;104.05;50.33;;;;;;;;;;5075028;28;20033;-50
2020/12/08 03:46:20;;;;;;;82.28;44.60;;;;;;;;;;5074914;28;20099;-50
2020/12/08 03:48:46;;;;;;;94.90;47.92;;;;;;;;;;5074870;28;20033;-50
2020/12/08 03:51:13;;;;;;;89.53;48.92;;;;;;;;;;5074792;28;20028;-49
2020/12/08 03:53:39;;;;;;;89.03;50.13;;;;;;;;;;5074764;28;20077;-50
2020/12/08 03:56:09;;;;;;;83.13;47.80;;;;;;;;;;5074312;28;20021;-50
2020/12/08 03:58:35;;;;;;;91.03;46.85;;;;;;;;;;5056323;28;20021;-50
2020/12/08 04:01:01;;;;;;;100.75;49.92;;;;;;;;;;5054168;28;20025;-50
2020/12/08 04:03:27;;;;;;;94.70;48.42;;;;;;;;;;5054177;28;20147;-50
2020/12/08 04:05:54;;;;;;;98.57;51.92;;;;;;;;;;5054565;28;20063;-51
2020/12/08 04:08:20;;;;;;;92.03;48.00;;;;;;;;;;5053899;28;20021;-50
2020/12/08 04:10:46;;;;;;;92.88;50.10;;;;;;;;;;5052728;28;20568;-50
2020/12/08 04:13:13;;;;;;;89.57;51.40;;;;;;;;;;5054449;28;20091;-50
2020/12/08 04:15:39;;;;;;;91.35;48.22;;;;;;;;;;5053457;28;20076;-51
2020/12/08 04:18:06;;;;;;;89.93;49.83;;;;;;;;;;5053634;28;20021;-51
2020/12/08 04:20:32;;;;;;;110.72;56.97;;;;;;;;;;5053306;28;20075;-50
2020/12/08 04:22:58;;;;;;;101.47;53.20;;;;;;;;;;5053373;28;20053;-51
2020/12/08 04:25:25;;;;;;;96.75;52.53;;;;;;;;;;5053987;28;20021;-50
2020/12/08 04:27:51;;;;;;;111.50;54.78;;;;;;;;;;5053304;28;20028;-50
2020/12/08 04:30:17;;;;;;;107.10;50.70;;;;;;;;;;5054142;28;20059;-50
2020/12/08 04:32:43;;;;;;;99.18;55.35;;;;;;;;;;5053093;28;20033;-50
2020/12/08 04:35:10;;;;;;;110.82;52.35;;;;;;;;;;5053400;28;20040;-50
2020/12/08 04:37:36;;;;;;;88.15;53.13;;;;;;;;;;5052931;28;20017;-50
2020/12/08 04:40:02;;;;;;;104.03;55.00;;;;;;;;;;5052851;28;20075;-51
2020/12/08 04:42:28;;;;;;;112.45;58.88;;;;;;;;;;5053570;28;20029;-50
2020/12/08 04:44:55;;;;;;;101.57;52.22;;;;;;;;;;5053235;28;20106;-50
2020/12/08 04:47:22;;;;;;;118.95;56.65;;;;;;;;;;5052300;28;20029;-51
2020/12/08 04:49:50;;;;;;;104.25;57.03;;;;;;;;;;5053839;28;20051;-50
2020/12/08 04:52:16;;;;;;;102.78;57.78;;;;;;;;;;5053451;28;20017;-50
2020/12/08 04:54:43;;;;;;;133.20;56.20;;;;;;;;;;5052751;28;20146;-51
2020/12/08 04:57:09;;;;;;;105.18;55.22;;;;;;;;;;5052792;28;20028;-51
2020/12/08 04:59:38;;;;;;;116.55;59.53;;;;;;;;;;5051420;28;20494;-50
2020/12/08 05:02:06;;;;;;;116.72;56.45;;;;;;;;;;5053431;28;20379;-51
2020/12/08 05:04:32;;;;;;;112.82;58.47;;;;;;;;;;5053361;28;20013;-50
2020/12/08 05:07:02;;;;;;;109.45;58.50;;;;;;;;;;5053297;28;20060;-50
2020/12/08 05:09:28;;;;;;;114.55;59.83;;;;;;;;;;5053231;28;20029;-50
2020/12/08 05:12:00;;;;;;;118.03;56.85;;;;;;;;;;5053686;28;20052;-50
2020/12/08 05:14:27;;;;;;;125.00;61.40;;;;;;;;;;5053611;28;20029;-50
2020/12/08 05:17:04;;;;;;;104.22;52.53;;;;;;;;;;5053085;28;20028;-50
2020/12/08 05:19:30;;;;;;;118.78;57.45;;;;;;;;;;5053526;28;20048;-51
2020/12/08 05:21:56;;;;;;;112.80;59.22;;;;;;;;;;5053389;28;20435;-51
2020/12/08 05:24:24;;;;;;;124.95;62.20;;;;;;;;;;5053183;28;20025;-50
2020/12/08 05:26:57;;;;;;;113.45;61.42;;;;;;;;;;5053497;28;20017;-50
2020/12/08 05:29:24;;;;;;;104.28;59.38;;;;;;;;;;5053191;28;20029;-51
2020/12/08 05:31:51;;;;;;;104.95;55.10;;;;;;;;;;5053359;28;20033;-50
2020/12/08 05:34:21;;;;;;;112.10;60.53;;;;;;;;;;5053137;28;20036;-50
2020/12/08 05:36:49;;;;;;;115.70;60.22;;;;;;;;;;5053014;28;20029;-50
2020/12/08 05:39:19;;;;;;;107.70;55.95;;;;;;;;;;5052869;28;20025;-50
2020/12/08 05:41:46;;;;;;;110.32;56.25;;;;;;;;;;5052645;28;20429;-51
2020/12/08 05:44:26;;;;;;;130.93;57.63;;;;;;;;;;5052940;28;20021;-51
2020/12/08 05:46:53;;;;;;;109.50;58.33;;;;;;;;;;5052276;28;20021;-50
2020/12/08 05:49:19;;;;;;;114.03;59.17;;;;;;;;;;5052805;28;20051;-51
2020/12/08 05:51:47;;;;;;;118.70;61.83;;;;;;;;;;5052535;28;20036;-50
2020/12/08 05:54:20;;;;;;;115.75;61.65;;;;;;;;;;5052191;28;20021;-50
2020/12/08 05:56:52;;;;;;;119.38;59.75;;;;;;;;;;5052824;28;20060;-51
2020/12/08 05:59:28;;;;;;;123.40;61.75;;;;;;;;;;5055763;28;20424;-50
2020/12/08 06:01:54;;;;;;;116.65;59.95;;;;;;;;;;5056495;28;20029;-50
2020/12/08 06:04:21;;;;;;;119.15;60.08;;;;;;;;;;5056616;28;20391;-50
2020/12/08 06:06:48;;;;;;;121.60;55.90;;;;;;;;;;5056477;28;20070;-50
2020/12/08 06:09:24;;;;;;;101.07;55.80;;;;;;;;;;5055297;28;20078;-51
2020/12/08 06:11:50;;;;;;;105.95;55.78;;;;;;;;;;5056844;28;20029;-50
2020/12/08 06:14:17;;;;;;;116.05;57.45;;;;;;;;;;5056863;28;20021;-51
2020/12/08 06:16:43;;;;;;;117.70;55.60;;;;;;;;;;5056440;28;20025;-59
2020/12/08 06:19:09;;;;;;;98.18;55.25;;;;;;;;;;5055227;28;20429;-52
2020/12/08 06:21:39;;;;;;;113.75;59.33;;;;;;;;;;5056657;28;20025;-55
2020/12/08 06:24:06;;;;;;;102.57;55.30;;;;;;;;;;5056595;28;20029;-51
2020/12/08 06:26:40;;;;;;;114.82;56.92;;;;;;;;;;5056317;28;20372;-52
2020/12/08 06:29:10;;;;;;;105.78;58.88;;;;;;;;;;5056602;28;20021;-52
2020/12/08 06:31:47;;;;;;;120.63;57.75;;;;;;;;;;5056114;28;20100;-51
2020/12/08 06:34:20;;;;;;;113.85;60.92;;;;;;;;;;5056006;28;20033;-53
2020/12/08 06:36:47;;;;;;;102.15;58.85;;;;;;;;;;5056419;28;20025;-51
2020/12/08 06:39:13;;;;;;;122.07;60.60;;;;;;;;;;5056110;28;20379;-52
2020/12/08 06:41:40;;;;;;;118.65;58.70;;;;;;;;;;5056431;28;20101;-51
2020/12/08 06:44:12;;;;;;;134.00;61.10;;;;;;;;;;5056463;28;20116;-52
2020/12/08 06:46:39;;;;;;;133.40;60.00;;;;;;;;;;5056023;28;20052;-52
2020/12/08 06:49:06;;;;;;;115.45;56.67;;;;;;;;;;5056079;28;20036;-52
2020/12/08 06:51:36;;;;;;;128.05;60.35;;;;;;;;;;5056045;28;20054;-51
2020/12/08 06:54:16;;;;;;;115.40;57.97;;;;;;;;;;5056498;28;20039;-52
2020/12/08 06:56:42;;;;;;;85.93;48.95;;;;;;;;;;5056023;28;20052;-51
2020/12/08 06:59:09;;;;;;;95.40;54.97;;;;;;;;;;5055625;28;20078;-51
2020/12/08 07:01:36;;;;;;;114.15;60.67;;;;;;;;;;5056091;28;20416;-53
2020/12/08 07:04:02;;;;;;;117.05;61.28;;;;;;;;;;5056146;28;20040;-52
2020/12/08 07:06:28;;;;;;;128.40;64.35;;;;;;;;;;5056160;28;20378;-51
2020/12/08 07:08:55;;;;;;;91.78;54.83;;;;;;;;;;5055447;28;20025;-52
2020/12/08 07:11:21;;;;;;;130.45;63.88;;;;;;;;;;5055114;28;20025;-52
2020/12/08 07:13:55;;;;;;;122.72;61.22;;;;;;;;;;5054275;28;20021;-53
2020/12/08 07:16:22;;;;;;;124.60;61.08;;;;;;;;;;5055314;28;20025;-53
2020/12/08 07:18:49;;;;;;;110.55;56.95;;;;;;;;;;5055115;28;20041;-51
2020/12/08 07:21:15;;;;;;;135.32;64.05;;;;;;;;;;5055542;28;20029;-51
2020/12/08 07:23:42;;;;;;;135.27;65.32;;;;;;;;;;5055502;28;20104;-53
2020/12/08 07:26:09;;;;;;;126.03;61.55;;;;;;;;;;5055413;28;20032;-52
2020/12/08 07:28:35;;;;;;;113.13;56.30;;;;;;;;;;5055081;28;20025;-52
2020/12/08 07:31:02;;;;;;;119.57;57.10;;;;;;;;;;5055333;28;20104;-55
2020/12/08 07:33:31;;;;;;;99.30;54.90;;;;;;;;;;5054948;28;20045;-60
2020/12/08 07:35:58;;;;;;;103.10;52.88;;;;;;;;;;5055270;28;20025;-52
2020/12/08 07:38:24;;;;;;;105.90;53.53;;;;;;;;;;5055017;28;20048;-51
2020/12/08 07:40:50;;;;;;;116.72;58.83;;;;;;;;;;5055525;28;20032;-53
2020/12/08 07:43:17;;;;;;;105.20;55.95;;;;;;;;;;5055167;28;20036;-52
2020/12/08 07:45:44;;;;;;;95.50;54.35;;;;;;;;;;5053634;28;20029;-53
2020/12/08 07:48:20;;;;;;;136.68;61.67;;;;;;;;;;5056157;28;20493;-51
2020/12/08 07:50:47;;;;;;;107.20;56.38;;;;;;;;;;5058125;28;20032;-53
2020/12/08 07:53:15;;;;;;;111.57;52.45;;;;;;;;;;5058122;28;20357;-55
2020/12/08 07:55:46;;;;;;;96.85;51.70;;;;;;;;;;5056687;28;20032;-55
2020/12/08 07:58:14;;;;;;;106.68;54.72;;;;;;;;;;5056038;28;20017;-53
2020/12/08 08:00:40;;;;;;;123.63;52.45;;;;;;;;;;5057369;28;20470;-52
2020/12/08 08:03:07;;;;;;;89.22;52.47;;;;;;;;;;5055576;28;20032;-53
2020/12/08 08:05:34;;;;;;;100.45;52.70;;;;;;;;;;5055646;28;20054;-53
2020/12/08 08:08:16;;;;;;;90.90;46.35;;;;;;;;;;5057253;28;20029;-53
2020/12/08 08:10:42;;;;;;;114.10;56.28;;;;;;;;;;5062210;28;20047;-55
2020/12/08 08:13:21;;;;;;;87.68;49.50;;;;;;;;;;5077801;28;20028;-52
2020/12/08 08:15:49;;;;;;;102.60;54.22;;;;;;;;;;5079527;28;20024;-53
2020/12/08 08:18:22;;;;;;;105.00;54.38;;;;;;;;;;5084536;28;20062;-53
2020/12/08 08:20:50;;;;;;;101.80;53.53;;;;;;;;;;5042331;28;20064;-54
2020/12/08 08:23:16;;;;;;;115.40;58.15;;;;;;;;;;5037163;28;20068;-54
2020/12/08 08:25:42;;;;;;;109.20;55.15;;;;;;;;;;5039492;28;20028;-52
2020/12/08 08:28:09;;;;;;;99.50;51.90;;;;;;;;;;5034236;28;20052;-53
2020/12/08 08:30:35;;;;;;;83.88;49.33;;;;;;;;;;5035930;28;20049;-53
2020/12/08 08:33:02;;;;;;;92.80;49.97;;;;;;;;;;5037149;28;20077;-53
2020/12/08 08:35:29;;;;;;;91.85;48.78;;;;;;;;;;5033019;28;20049;-52
2020/12/08 08:37:55;;;;;;;93.80;48.22;;;;;;;;;;5034408;28;20021;-52
2020/12/08 08:40:22;;;;;;;74.97;46.10;;;;;;;;;;5038261;28;20105;-53
2020/12/08 08:42:48;;;;;;;68.97;48.53;;;;;;;;;;5033951;28;20025;-54
2020/12/08 08:45:15;;;;;;;87.68;49.95;;;;;;;;;;5033822;28;20481;-53
2020/12/08 08:47:41;;;;;;;87.15;46.85;;;;;;;;;;5034234;28;20096;-51
2020/12/08 08:50:08;;;;;;;86.25;47.22;;;;;;;;;;5034785;28;20025;-51
2020/12/08 08:52:34;;;;;;;89.05;48.42;;;;;;;;;;5034058;28;20025;-51
2020/12/08 08:55:01;;;;;;;82.93;45.28;;;;;;;;;;5034334;28;20033;-52
2020/12/08 08:57:27;;;;;;;98.40;45.15;;;;;;;;;;5034385;28;20023;-52
2020/12/08 08:59:53;;;;;;;104.30;51.85;;;;;;;;;;5039019;28;20479;-52
2020/12/08 09:02:20;;;;;;;103.13;45.92;;;;;;;;;;5046011;28;20056;-53
2020/12/08 09:04:46;;;;;;;104.10;49.72;;;;;;;;;;5053431;28;20029;-51
2020/12/08 09:07:13;;;;;;;109.97;53.65;;;;;;;;;;5052268;28;20120;-53
2020/12/08 09:12:48;;;;;;;97.63;47.65;;;;;;;;;;4988563;28;20033;-52
2020/12/08 09:15:15;;;;;;;97.82;47.85;;;;;;;;;;5031148;28;20442;-52
2020/12/08 09:17:41;;;;;;;107.72;47.38;;;;;;;;;;5033260;28;20103;-52
2020/12/08 09:20:07;;;;;;;87.68;44.15;;;;;;;;;;5046547;28;20392;-50
2020/12/08 09:22:34;;;;;;;91.68;45.30;;;;;;;;;;5053110;28;20103;-50
2020/12/08 09:25:00;;;;;;;90.38;46.17;;;;;;;;;;5053139;28;20021;-51
2020/12/08 09:27:27;;;;;;;94.10;50.00;;;;;;;;;;5053593;28;20025;-51
2020/12/08 09:29:53;;;;;;;78.40;42.55;;;;;;;;;;5053467;28;20044;-52
2020/12/08 09:32:19;;;;;;;83.22;46.63;;;;;;;;;;5053543;28;20028;-50
2020/12/08 09:34:46;;;;;;;102.28;48.17;;;;;;;;;;5057175;28;20021;-51
2020/12/08 09:37:12;;;;;;;108.65;46.15;;;;;;;;;;5056014;28;20021;-51
2020/12/08 09:39:38;;;;;;;79.25;43.05;;;;;;;;;;5057312;28;20021;-51
2020/12/08 09:42:05;;;;;;;108.57;48.72;;;;;;;;;;5057286;28;20128;-50
2020/12/08 09:44:31;;;;;;;88.60;43.08;;;;;;;;;;5056934;28;20387;-50
2020/12/08 09:46:57;;;;;;;93.72;45.67;;;;;;;;;;5057554;28;20021;-49
2020/12/08 09:49:24;;;;;;;80.53;41.35;;;;;;;;;;5057498;28;20021;-51
2020/12/08 09:51:50;;;;;;;114.43;45.17;;;;;;;;;;5056826;28;20051;-50
2020/12/08 09:54:17;;;;;;;82.78;42.35;;;;;;;;;;5057197;28;20390;-51
2020/12/08 09:56:47;;;;;;;77.55;41.70;;;;;;;;;;5057248;28;20379;-49
2020/12/08 09:59:14;;;;;;;76.55;40.25;;;;;;;;;;5057160;28;20386;-56
2020/12/08 10:01:40;;;;;;;96.00;43.70;;;;;;;;;;5057223;28;20071;-53
2020/12/08 10:04:07;;;;;;;92.15;44.78;;;;;;;;;;5056675;28;20028;-49
2020/12/08 10:06:33;;;;;;;90.60;47.17;;;;;;;;;;5056945;28;20021;-50
2020/12/08 10:09:00;;;;;;;93.55;44.42;;;;;;;;;;5056950;28;20025;-49
2020/12/08 10:11:26;;;;;;;88.95;44.30;;;;;;;;;;5056497;28;20032;-50
2020/12/08 10:13:53;;;;;;;86.85;44.33;;;;;;;;;;5056820;28;20050;-49
2020/12/08 10:16:20;;;;;;;86.68;43.40;;;;;;;;;;5056805;28;20052;-53
2020/12/08 10:18:47;;;;;;;76.90;38.95;;;;;;;;;;5056548;28;20056;-52
2020/12/08 10:21:14;;;;;;;88.78;43.47;;;;;;;;;;5056701;28;20036;-52
2020/12/08 10:23:41;;;;;;;80.72;39.03;;;;;;;;;;5056641;28;20421;-52
2020/12/08 10:26:09;;;;;;;79.10;38.17;;;;;;;;;;5056738;28;20031;-51
2020/12/08 10:28:36;;;;;;;78.88;37.22;;;;;;;;;;5056391;28;20079;-50
2020/12/08 10:31:02;;;;;;;75.38;40.17;;;;;;;;;;5056493;28;20076;-53
2020/12/08 10:33:28;;;;;;;83.85;39.47;;;;;;;;;;5056129;28;20040;-52
2020/12/08 10:35:55;;;;;;;87.05;41.58;;;;;;;;;;5056355;28;20100;-53
2020/12/08 10:38:21;;;;;;;84.47;41.10;;;;;;;;;;5056125;28;20024;-50
2020/12/08 10:40:47;;;;;;;75.45;41.03;;;;;;;;;;5056256;28;20057;-54
2020/12/08 10:43:13;;;;;;;87.90;39.38;;;;;;;;;;5056361;28;20539;-55
2020/12/08 10:45:40;;;;;;;80.07;37.90;;;;;;;;;;5054964;28;20033;-59
2020/12/08 10:48:06;;;;;;;59.38;35.78;;;;;;;;;;5056192;28;20021;-56
2020/12/08 10:50:32;;;;;;;74.45;37.72;;;;;;;;;;5055846;28;20093;-52
2020/12/08 10:52:59;;;;;;;79.63;39.63;;;;;;;;;;5055957;28;20021;-50
2020/12/08 10:55:26;;;;;;;70.22;37.60;;;;;;;;;;5055695;28;20033;-50
2020/12/08 10:57:52;;;;;;;66.45;35.97;;;;;;;;;;5056033;28;20025;-50
2020/12/08 11:00:18;;;;;;;70.15;32.80;;;;;;;;;;5055515;28;20021;-49
2020/12/08 11:02:45;;;;;;;68.47;34.65;;;;;;;;;;5056220;28;20094;-49
2020/12/08 11:05:11;;;;;;;85.70;37.08;;;;;;;;;;5055546;28;20071;-50
2020/12/08 11:07:37;;;;;;;81.43;40.05;;;;;;;;;;5055243;28;20029;-49
2020/12/08 11:10:04;;;;;;;74.63;35.53;;;;;;;;;;5055568;28;20074;-49
2020/12/08 11:12:30;;;;;;;68.95;33.47;;;;;;;;;;5055701;28;20025;-50
2020/12/08 11:14:57;;;;;;;86.53;36.80;;;;;;;;;;5055555;28;20021;-50
2020/12/08 11:17:23;;;;;;;72.72;34.30;;;;;;;;;;5054620;28;20033;-49
2020/12/08 11:19:50;;;;;;;74.40;36.67;;;;;;;;;;5055048;28;20048;-48
2020/12/08 11:22:16;;;;;;;67.05;35.97;;;;;;;;;;5054902;28;20104;-49
2020/12/08 11:24:42;;;;;;;80.13;37.78;;;;;;;;;;5055565;28;20021;-49
2020/12/08 11:27:13;;;;;;;60.72;32.55;;;;;;;;;;5055320;28;20051;-49
2020/12/08 11:29:39;;;;;;;;;;;;;;;;;;5056320;28;20097;-49
2020/12/08 11:32:05;;;;;;;76.55;35.75;;;;;;;;;;5054867;28;19905;-50
2020/12/08 11:34:32;;;;;;;64.80;34.15;;;;;;;;;;5054918;28;20082;-50
2020/12/08 11:36:58;;;;;;;78.28;35.47;;;;;;;;;;5054895;28;20052;-50
2020/12/08 11:39:24;;;;;;;70.45;32.97;;;;;;;;;;5054755;28;20592;-50
2020/12/08 11:41:51;;;;;;;77.72;35.33;;;;;;;;;;5054791;28;20386;-50
2020/12/08 11:44:17;;;;;;;66.95;36.88;;;;;;;;;;5055123;28;20108;-50
2020/12/08 11:46:43;;;;;;;71.88;33.40;;;;;;;;;;5054745;28;20029;-50
2020/12/08 11:49:09;;;;;;;65.30;32.95;;;;;;;;;;5055039;28;20017;-49
2020/12/08 11:51:35;;;;;;;68.60;34.50;;;;;;;;;;5065388;28;20021;-49
2020/12/08 11:54:02;;;;;;;75.68;34.28;;;;;;;;;;5054812;28;20465;-49
2020/12/08 11:56:28;;;;;;;55.30;30.40;;;;;;;;;;5054518;28;20090;-49
2020/12/08 11:58:56;;;;;;;67.50;33.75;;;;;;;;;;5054824;28;20029;-50
2020/12/08 12:01:24;;;;;;;63.63;31.75;;;;;;;;;;5055163;28;20434;-50
2020/12/08 12:03:50;;;;;;;67.30;33.38;;;;;;;;;;5054706;28;20032;-50
2020/12/08 12:06:16;;;;;;;82.30;34.60;;;;;;;;;;5054351;28;20437;-49
2020/12/08 12:08:43;;;;;;;73.07;34.05;;;;;;;;;;5072094;28;20087;-49
2020/12/08 12:11:09;;;;;;;76.72;32.03;;;;;;;;;;5074188;28;20024;-49
2020/12/08 12:13:35;;;;;;;73.22;32.17;;;;;;;;;;5074148;28;20493;-49
2020/12/08 12:16:02;;;;;;;69.05;34.03;;;;;;;;;;5074439;28;20052;-50
2020/12/08 12:18:28;;;;;;;70.57;33.90;;;;;;;;;;5074225;28;20021;-50
2020/12/08 12:20:55;;;;;;;61.55;31.88;;;;;;;;;;5073998;28;20075;-50
2020/12/08 12:23:21;;;;;;;48.53;28.92;;;;;;;;;;5073789;28;20468;-50
2020/12/08 12:25:47;;;;;;;46.63;26.77;;;;;;;;;;5073995;28;20033;-50
2020/12/08 12:28:13;;;;;;;63.88;33.50;;;;;;;;;;5073902;28;20066;-50
2020/12/08 12:30:40;;;;;;;62.10;32.10;;;;;;;;;;5074171;28;20028;-50
2020/12/08 12:33:06;;;;;;;65.32;30.73;;;;;;;;;;5074146;28;20428;-50
2020/12/08 12:35:33;;;;;;;69.75;31.98;;;;;;;;;;5074157;28;20020;-50
2020/12/08 12:37:59;;;;;;;77.05;32.55;;;;;;;;;;5074124;28;20020;-50
2020/12/08 12:40:25;;;;;;;57.88;35.33;;;;;;;;;;5073710;28;20028;-50
2020/12/08 12:42:51;;;;;;;69.97;32.25;;;;;;;;;;5074000;28;20021;-50
2020/12/08 12:45:18;;;;;;;79.88;32.20;;;;;;;;;;5074045;28;20031;-50
2020/12/08 12:47:44;;;;;;;54.67;31.50;;;;;;;;;;5073892;28;20415;-50
2020/12/08 12:50:10;;;;;;;61.60;31.48;;;;;;;;;;5073884;28;20104;-50
2020/12/08 12:52:36;;;;;;;69.40;31.45;;;;;;;;;;5074187;28;20466;-49
2020/12/08 12:55:03;;;;;;;67.03;32.55;;;;;;;;;;5073829;28;20025;-50
2020/12/08 12:57:29;;;;;;;67.78;33.67;;;;;;;;;;5072301;28;20021;-49
2020/12/08 12:59:55;;;;;;;70.55;35.30;;;;;;;;;;5073750;28;20017;-49
2020/12/08 13:02:22;;;;;;;60.60;29.50;;;;;;;;;;5073716;28;20470;-49
2020/12/08 13:04:50;;;;;;;71.47;33.03;;;;;;;;;;5073625;28;20095;-49
2020/12/08 13:07:17;;;;;;;71.35;34.70;;;;;;;;;;5072653;28;20054;-49
2020/12/08 13:09:44;;;;;;;68.97;33.50;;;;;;;;;;5073530;28;20020;-49
2020/12/08 13:12:10;;;;;;;67.50;30.50;;;;;;;;;;5073328;28;20024;-49
2020/12/08 13:14:37;;;;;;;57.40;31.75;;;;;;;;;;5073294;28;20021;-50
2020/12/08 13:17:03;;;;;;;62.03;31.23;;;;;;;;;;5073648;28;20017;-50
2020/12/08 13:19:29;;;;;;;57.63;29.77;;;;;;;;;;5073392;28;20041;-50
2020/12/08 13:21:56;;;;;;;66.50;32.63;;;;;;;;;;5073542;28;20028;-50
2020/12/08 13:24:22;;;;;;;73.35;34.60;;;;;;;;;;5073184;28;20029;-50
2020/12/08 13:26:49;;;;;;;66.05;34.95;;;;;;;;;;5071924;28;20413;-50
2020/12/08 13:29:15;;;;;;;70.43;37.33;;;;;;;;;;5073178;28;20202;-50
2020/12/08 13:31:41;;;;;;;81.90;34.95;;;;;;;;;;5073362;28;20025;-50
2020/12/08 13:34:07;;;;;;;76.22;38.63;;;;;;;;;;5073430;28;20474;-50
2020/12/08 13:36:34;;;;;;;91.80;40.03;;;;;;;;;;5073392;28;20023;-50
2020/12/08 13:39:00;;;;;;;82.35;39.10;;;;;;;;;;5073429;28;20013;-49
2020/12/08 13:41:26;;;;;;;88.18;38.80;;;;;;;;;;5072974;28;20359;-49
2020/12/08 13:43:53;;;;;;;75.28;39.58;;;;;;;;;;5073358;28;20063;-50
2020/12/08 13:46:22;;;;;;;69.30;35.00;;;;;;;;;;5073360;28;20028;-50
2020/12/08 13:48:49;;;;;;;68.40;36.13;;;;;;;;;;5073279;28;20033;-50
2020/12/08 13:51:16;;;;;;;87.97;41.75;;;;;;;;;;5073210;28;20105;-50
2020/12/08 13:53:44;;;;;;;77.85;38.33;;;;;;;;;;5072918;28;20013;-50
2020/12/08 13:56:10;;;;;;;70.60;34.42;;;;;;;;;;5073106;28;20555;-51
2020/12/08 13:58:36;;;;;;;66.28;33.72;;;;;;;;;;5072976;28;20047;-49
2020/12/08 14:01:02;;;;;;;59.65;32.15;;;;;;;;;;5073217;28;20473;-49
2020/12/08 14:03:29;;;;;;;72.25;37.03;;;;;;;;;;5072818;28;20033;-49
2020/12/08 14:05:56;;;;;;;71.90;32.80;;;;;;;;;;5073034;28;20021;-50
2020/12/08 14:08:23;;;;;;;79.65;36.22;;;;;;;;;;5073260;28;20082;-50
2020/12/08 14:10:50;;;;;;;73.95;36.33;;;;;;;;;;5072579;28;20039;-49
2020/12/08 14:13:16;;;;;;;111.78;40.92;;;;;;;;;;5073040;28;20042;-50
2020/12/08 14:15:43;;;;;;;84.75;37.40;;;;;;;;;;5072961;28;20021;-51